createdAt,value
2022-11-29T00:02:28.912Z,12.88
2022-11-29T00:07:32.960Z,12.32
2022-11-29T00:12:37.158Z,10.15
2022-11-29T00:17:42.860Z,8.63
2022-11-29T00:22:47.044Z,9.90
2022-11-29T00:27:54.141Z,9.88
2022-11-29T00:32:59.621Z,11.77
2022-11-29T00:38:03.540Z,11.45
2022-11-29T00:43:07.466Z,12.80
2022-11-29T00:48:12.893Z,11.45
2022-11-29T00:53:17.023Z,10.70
2022-11-29T00:58:21.754Z,11.48
2022-11-29T01:03:28.600Z,8.30
2022-11-29T01:08:33.438Z,6.22
2022-11-29T01:13:37.706Z,7.60
2022-11-29T01:18:44.199Z,5.63
2022-11-29T01:23:49.833Z,6.45
2022-11-29T01:28:55.289Z,6.38
2022-11-29T01:34:03.812Z,6.50
2022-11-29T01:39:09.078Z,4.18
2022-11-29T01:44:47.490Z,5.75
2022-11-29T01:49:53.011Z,5.03
2022-11-29T01:54:59.755Z,5.03
2022-11-29T02:00:08.841Z,5.10
2022-11-29T02:05:22.258Z,5.70
2022-11-29T02:10:39.946Z,5.65
2022-11-29T02:15:53.255Z,4.65
2022-11-29T02:21:28.674Z,5.10
2022-11-29T02:27:04.820Z,6.38
2022-11-29T02:33:00.704Z,5.78
2022-11-29T02:38:32.171Z,5.53
2022-11-29T02:44:08.730Z,6.10
2022-11-29T02:49:22.439Z,5.68
2022-11-29T02:54:36.011Z,6.43
2022-11-29T02:59:49.501Z,6.93
2022-11-29T03:05:01.201Z,6.53
2022-11-29T03:10:15.341Z,8.63
2022-11-29T03:15:28.552Z,8.43
2022-11-29T03:20:46.416Z,7.55
2022-11-29T03:25:58.602Z,7.18
2022-11-29T03:31:08.600Z,8.77
2022-11-29T03:36:20.287Z,7.93
2022-11-29T03:41:32.465Z,7.68
2022-11-29T03:46:43.837Z,9.23
2022-11-29T03:52:00.110Z,11.07
2022-11-29T03:57:06.198Z,10.20
2022-11-29T04:03:03.118Z,9.32
2022-11-29T04:08:28.523Z,9.27
2022-11-29T04:14:11.569Z,9.75
2022-11-29T04:19:46.777Z,9.10
2022-11-29T04:25:30.669Z,9.02
2022-11-29T04:30:46.238Z,11.23
2022-11-29T04:36:06.627Z,10.88
2022-11-29T04:41:34.212Z,9.25
2022-11-29T04:46:58.020Z,9.68
2022-11-29T04:52:31.259Z,21.88
2022-11-29T04:57:40.678Z,11.82
2022-11-29T05:02:55.813Z,13.30
2022-11-29T05:08:21.465Z,16.00
2022-11-29T05:13:35.408Z,12.23
2022-11-29T05:19:13.169Z,10.23
2022-11-29T05:24:29.912Z,11.32
2022-11-29T05:29:42.636Z,12.50
2022-11-29T05:35:22.935Z,13.85
2022-11-29T05:40:46.197Z,17.42
2022-11-29T05:45:56.995Z,19.15
2022-11-29T05:51:16.115Z,18.88
2022-11-29T05:56:35.804Z,18.55
2022-11-29T06:01:49.634Z,14.63
2022-11-29T06:07:04.570Z,11.95
2022-11-29T06:12:19.620Z,11.75
2022-11-29T06:17:47.516Z,19.05
2022-11-29T06:23:24.975Z,18.80
2022-11-29T06:28:42.831Z,20.52
2022-11-29T06:33:59.798Z,18.98
2022-11-29T06:39:04.699Z,15.05
2022-11-29T06:44:12.068Z,15.82
2022-11-29T06:49:24.575Z,11.48
2022-11-29T06:54:41.531Z,10.25
2022-11-29T06:59:58.469Z,11.25
2022-11-29T07:05:14.209Z,12.25
2022-11-29T07:10:20.497Z,9.68
2022-11-29T07:15:28.210Z,9.35
2022-11-29T07:20:40.636Z,8.68
2022-11-29T07:25:57.275Z,9.05
2022-11-29T07:31:10.976Z,7.40
2022-11-29T07:36:22.856Z,7.57
2022-11-29T07:41:37.079Z,8.57
2022-11-29T07:46:43.935Z,10.07
2022-11-29T07:51:47.987Z,8.88
2022-11-29T07:56:51.937Z,12.48
2022-11-29T08:01:58.933Z,16.52
2022-11-29T08:07:03.192Z,18.95
2022-11-29T08:12:07.584Z,21.48
2022-11-29T08:17:13.769Z,21.40
2022-11-29T08:22:17.794Z,16.98
2022-11-29T08:27:24.886Z,18.30
2022-11-29T08:32:30.340Z,15.52
2022-11-29T08:37:34.734Z,15.55
2022-11-29T08:42:38.758Z,13.90
2022-11-29T08:47:44.890Z,12.50
2022-11-29T08:53:07.944Z,12.88
2022-11-29T08:58:14.419Z,13.82
2022-11-29T09:03:37.272Z,13.80
2022-11-29T09:08:43.708Z,10.95
2022-11-29T09:13:50.487Z,11.70
2022-11-29T09:18:56.082Z,15.32
2022-11-29T09:24:01.497Z,14.80
2022-11-29T09:29:07.593Z,8.40
2022-11-29T09:34:15.562Z,11.02
2022-11-29T09:39:19.578Z,8.85
2022-11-29T09:44:30.418Z,7.20
2022-11-29T09:50:04.826Z,7.72
2022-11-29T09:55:25.229Z,8.00
2022-11-29T10:00:31.927Z,10.70
2022-11-29T10:05:44.237Z,11.63
2022-11-29T10:10:52.109Z,14.38
2022-11-29T10:16:00.770Z,15.35
2022-11-29T10:21:11.744Z,13.57
2022-11-29T10:26:16.188Z,12.77
2022-11-29T10:31:25.189Z,11.63
2022-11-29T10:36:35.775Z,11.30
2022-11-29T10:41:40.324Z,9.85
2022-11-29T10:46:44.439Z,11.63
2022-11-29T10:51:49.748Z,15.77
2022-11-29T10:56:54.769Z,12.50
2022-11-29T11:02:00.571Z,12.52
2022-11-29T11:07:07.955Z,12.80
2022-11-29T11:12:23.447Z,15.63
2022-11-29T11:17:32.760Z,18.42
2022-11-29T11:22:40.022Z,17.88
2022-11-29T11:27:44.277Z,16.63
2022-11-29T11:33:09.881Z,15.40
2022-11-29T11:38:20.031Z,20.02
2022-11-29T11:43:24.450Z,17.38
2022-11-29T11:48:29.083Z,14.18
2022-11-29T11:53:37.984Z,13.85
2022-11-29T11:58:51.581Z,13.50
2022-11-29T12:04:03.901Z,13.70
2022-11-29T12:09:18.874Z,16.02
2022-11-29T12:14:34.129Z,15.48
2022-11-29T12:19:49.094Z,22.00
2022-11-29T12:25:01.327Z,13.55
2022-11-29T12:30:13.940Z,12.60
2022-11-29T12:35:40.483Z,11.38
2022-11-29T12:40:55.292Z,11.23
2022-11-29T12:46:09.487Z,11.75
2022-11-29T12:51:19.876Z,11.05
2022-11-29T12:56:28.821Z,10.43
2022-11-29T13:01:40.852Z,19.37
2022-11-29T13:06:54.330Z,19.35
2022-11-29T13:12:06.574Z,14.27
2022-11-29T13:17:23.847Z,13.25
2022-11-29T13:22:37.040Z,13.80
2022-11-29T13:27:56.211Z,18.30
2022-11-29T13:33:06.410Z,15.80
2022-11-29T13:38:19.909Z,19.08
2022-11-29T13:43:31.621Z,27.15
2022-11-29T13:48:47.068Z,27.85
2022-11-29T13:53:51.820Z,20.30
2022-11-29T13:58:59.057Z,15.65
2022-11-29T14:04:08.026Z,13.20
2022-11-29T14:09:25.959Z,16.80
2022-11-29T14:14:36.787Z,13.85
2022-11-29T14:19:40.808Z,9.70
2022-11-29T14:24:58.716Z,9.98
2022-11-29T14:30:04.201Z,9.48
2022-11-29T14:35:18.074Z,9.55
2022-11-29T14:40:32.749Z,12.02
2022-11-29T14:45:38.879Z,19.63
2022-11-29T14:50:43.993Z,23.58
2022-11-29T14:55:48.720Z,15.00
2022-11-29T15:01:08.192Z,15.27
2022-11-29T15:06:24.351Z,19.67
2022-11-29T15:11:37.922Z,19.60
2022-11-29T15:17:09.338Z,16.48
2022-11-29T15:22:19.234Z,21.60
2022-11-29T15:27:24.801Z,16.17
2022-11-29T15:32:33.090Z,15.00
2022-11-29T15:37:44.722Z,17.70
2022-11-29T15:42:53.540Z,19.85
2022-11-29T15:48:15.792Z,23.25
2022-11-29T15:53:26.916Z,26.83
2022-11-29T15:58:34.541Z,23.95
2022-11-29T16:03:42.530Z,21.73
2022-11-29T16:08:47.597Z,21.50
2022-11-29T16:14:18.126Z,13.55
2022-11-29T16:19:33.128Z,17.42
2022-11-29T16:24:39.842Z,16.02
2022-11-29T16:29:46.671Z,9.43
2022-11-29T16:34:53.735Z,10.30
2022-11-29T16:40:01.415Z,14.05
2022-11-29T16:45:34.409Z,16.60
2022-11-29T16:50:41.062Z,12.60
2022-11-29T16:55:46.742Z,11.70
2022-11-29T17:00:50.735Z,17.60
2022-11-29T17:05:56.616Z,20.65
2022-11-29T17:11:01.423Z,18.98
2022-11-29T17:16:08.727Z,21.42
2022-11-29T17:21:22.804Z,25.80
2022-11-29T17:26:26.882Z,27.02
2022-11-29T17:31:32.783Z,29.73
2022-11-29T17:36:39.551Z,33.55
2022-11-29T17:41:43.667Z,43.13
2022-11-29T17:46:49.039Z,41.50
2022-11-29T17:51:57.081Z,34.53
2022-11-29T17:57:03.764Z,37.15
2022-11-29T18:02:08.262Z,36.13
2022-11-29T18:07:15.899Z,41.67
2022-11-29T18:12:23.692Z,48.35
2022-11-29T18:17:27.772Z,42.15
2022-11-29T18:22:34.195Z,33.40
2022-11-29T18:27:38.455Z,31.10
2022-11-29T18:32:46.968Z,29.83
2022-11-29T18:43:18.294Z,37.28
2022-11-29T18:48:22.755Z,31.92
2022-11-29T18:53:29.082Z,38.22
2022-11-29T18:58:33.360Z,35.53
2022-11-29T19:03:39.377Z,33.67
2022-11-29T19:08:47.206Z,31.25
2022-11-29T19:13:56.662Z,33.65
2022-11-29T19:19:04.846Z,38.38
2022-11-29T19:24:17.488Z,35.47
2022-11-29T19:29:21.588Z,33.28
2022-11-29T19:34:25.604Z,16.23
2022-11-29T19:39:31.328Z,14.43
2022-11-29T19:44:54.304Z,13.73
2022-11-29T19:50:02.495Z,11.93
2022-11-29T19:55:10.710Z,11.50
2022-11-29T20:00:25.288Z,10.70
2022-11-29T20:05:29.506Z,10.55
2022-11-29T20:10:36.755Z,21.27
2022-11-29T20:15:41.256Z,19.42
2022-11-29T20:20:45.279Z,14.68
2022-11-29T20:25:52.219Z,12.80
2022-11-29T20:30:56.842Z,13.57
2022-11-29T20:36:15.621Z,13.00
2022-11-29T20:41:26.672Z,12.53
2022-11-29T20:46:32.759Z,14.55
2022-11-29T20:51:45.976Z,14.32
2022-11-29T20:56:51.558Z,18.63
2022-11-29T21:01:57.045Z,18.67
2022-11-29T21:07:02.135Z,21.10
2022-11-29T21:12:11.330Z,20.42
2022-11-29T21:17:18.765Z,20.88
2022-11-29T21:22:29.913Z,23.45
2022-11-29T21:27:36.642Z,29.20
2022-11-29T21:32:41.813Z,24.90
2022-11-29T21:37:46.314Z,29.20
2022-11-29T21:42:51.826Z,29.25
2022-11-29T21:47:56.138Z,29.92
2022-11-29T21:53:00.061Z,26.55
2022-11-29T21:58:05.430Z,26.15
2022-11-29T22:03:09.443Z,22.00
2022-11-29T22:08:14.195Z,18.98
2022-11-29T22:13:19.558Z,15.88
2022-11-29T22:18:27.105Z,17.63
2022-11-29T22:23:31.385Z,17.83
2022-11-29T22:28:37.263Z,17.92
2022-11-29T22:33:41.535Z,14.60
2022-11-29T22:38:45.896Z,12.95
2022-11-29T22:43:51.755Z,12.55
2022-11-29T22:48:57.009Z,10.52
2022-11-29T22:54:02.455Z,9.57
2022-11-29T22:59:07.951Z,8.40
2022-11-29T23:04:13.377Z,6.05
2022-11-29T23:09:21.184Z,7.57
2022-11-29T23:14:26.631Z,8.02
2022-11-29T23:19:30.831Z,9.05
2022-11-29T23:24:34.800Z,11.27
2022-11-29T23:29:40.224Z,13.70
2022-11-29T23:34:44.432Z,12.60
2022-11-29T23:39:48.628Z,13.30
2022-11-29T23:44:54.312Z,14.52
2022-11-29T23:49:58.298Z,13.20
2022-11-29T23:55:02.383Z,13.07
